Time;durP1;ratioP1;P1;durP2;ratioP2;P2;SDS_P1;SDS_P2;PMS_P1;PMS_P2;Temp;Humidity;BMP_temperature;BMP_pressure;BME280_temperature;BME280_humidity;BME280_pressure;Samples;Min_cycle;Max_cycle;Signal;HPM_P1;HPM_P2
2022/03/22 00:02:19;;;;;;;12.20;7.17;;;;;;;;;;5060089;28;20252;-61
2022/03/22 00:04:46;;;;;;;15.57;8.70;;;;;;;;;;5059044;28;20588;-61
2022/03/22 00:07:13;;;;;;;17.20;7.83;;;;;;;;;;5054814;28;20250;-60
2022/03/22 00:09:41;;;;;;;14.00;7.77;;;;;;;;;;5057500;28;20306;-61
2022/03/22 00:12:09;;;;;;;11.43;7.27;;;;;;;;;;5054819;28;20222;-60
2022/03/22 00:14:36;;;;;;;16.57;9.27;;;;;;;;;;5058082;28;20250;-61
2022/03/22 00:17:04;;;;;;;15.27;8.03;;;;;;;;;;5057172;28;20329;-61
2022/03/22 00:19:31;;;;;;;16.43;8.83;;;;;;;;;;5056654;28;20705;-60
2022/03/22 00:21:58;;;;;;;15.73;8.63;;;;;;;;;;5057026;28;20249;-60
2022/03/22 00:24:25;;;;;;;14.17;8.43;;;;;;;;;;5055103;28;20669;-60
2022/03/22 00:26:53;;;;;;;16.97;7.60;;;;;;;;;;5055124;28;20199;-60
2022/03/22 00:29:20;;;;;;;12.27;6.73;;;;;;;;;;5057104;28;20222;-60
2022/03/22 00:31:47;;;;;;;9.53;5.83;;;;;;;;;;5056130;28;20245;-61
2022/03/22 00:34:14;;;;;;;10.93;5.97;;;;;;;;;;5057528;28;20213;-60
2022/03/22 00:36:41;;;;;;;15.87;8.17;;;;;;;;;;5055761;28;20212;-60
2022/03/22 00:39:08;;;;;;;14.77;7.07;;;;;;;;;;5053977;28;20207;-60
2022/03/22 00:41:35;;;;;;;16.13;7.80;;;;;;;;;;5054359;28;20245;-61
2022/03/22 00:44:04;;;;;;;18.47;9.77;;;;;;;;;;5054676;28;20207;-61
2022/03/22 00:46:31;;;;;;;15.23;6.93;;;;;;;;;;5057684;28;20204;-60
2022/03/22 00:48:58;;;;;;;10.60;5.17;;;;;;;;;;5058393;28;20230;-60
2022/03/22 00:51:25;;;;;;;7.67;4.90;;;;;;;;;;5054671;28;20871;-60
2022/03/22 00:53:52;;;;;;;6.03;4.80;;;;;;;;;;5056861;28;20723;-59
2022/03/22 00:56:19;;;;;;;11.27;4.20;;;;;;;;;;5058362;28;20297;-60
2022/03/22 01:00:01;;;;;;;7.77;4.80;;;;;;;;;;5057648;28;20283;-60
2022/03/22 01:01:35;;;;;;;8.03;5.17;;;;;;;;;;5055609;28;20400;-60
2022/03/22 01:04:04;;;;;;;17.90;5.90;;;;;;;;;;5056717;28;20687;-60
2022/03/22 01:06:32;;;;;;;15.13;7.23;;;;;;;;;;5054820;28;20306;-60
2022/03/22 01:08:59;;;;;;;16.93;7.10;;;;;;;;;;5057001;28;20743;-60
2022/03/22 01:11:26;;;;;;;9.80;6.00;;;;;;;;;;5056093;28;21003;-60
2022/03/22 01:13:54;;;;;;;13.07;6.73;;;;;;;;;;5056187;28;20208;-60
2022/03/22 01:16:21;;;;;;;14.47;8.13;;;;;;;;;;5057966;28;20301;-60
2022/03/22 01:18:50;;;;;;;12.23;7.57;;;;;;;;;;5060778;28;20283;-60
2022/03/22 01:21:17;;;;;;;16.17;7.43;;;;;;;;;;5059084;28;20655;-60
2022/03/22 01:23:44;;;;;;;9.03;5.77;;;;;;;;;;5060795;28;20248;-60
2022/03/22 01:26:11;;;;;;;10.83;6.27;;;;;;;;;;5060901;28;20211;-60
2022/03/22 01:28:38;;;;;;;11.53;6.20;;;;;;;;;;5059000;28;20211;-61
2022/03/22 01:31:05;;;;;;;12.73;6.63;;;;;;;;;;5060742;28;20233;-61
2022/03/22 01:33:32;;;;;;;9.23;5.30;;;;;;;;;;5060575;28;20312;-60
2022/03/22 01:36:00;;;;;;;11.53;5.97;;;;;;;;;;5061291;28;20209;-61
2022/03/22 01:38:28;;;;;;;10.30;5.73;;;;;;;;;;5059944;28;20669;-60
2022/03/22 01:40:55;;;;;;;9.13;6.07;;;;;;;;;;5059240;28;20433;-60
2022/03/22 01:43:22;;;;;;;9.13;5.83;;;;;;;;;;5060012;28;20206;-61
2022/03/22 01:45:50;;;;;;;13.13;5.80;;;;;;;;;;5059945;28;20629;-61
2022/03/22 01:48:17;;;;;;;9.33;5.37;;;;;;;;;;5049288;28;20296;-61
2022/03/22 01:50:44;;;;;;;11.63;5.10;;;;;;;;;;5050101;28;20202;-61
2022/03/22 01:53:13;;;;;;;8.17;5.57;;;;;;;;;;5049838;28;20219;-61
2022/03/22 01:55:40;;;;;;;6.53;4.63;;;;;;;;;;5049940;28;20207;-61
2022/03/22 01:58:07;;;;;;;7.67;4.97;;;;;;;;;;5056326;28;20606;-61
2022/03/22 02:00:34;;;;;;;9.43;5.80;;;;;;;;;;5049443;28;20639;-58
2022/03/22 02:05:52;;;;;;;8.70;5.47;;;;;;;;;;5049754;28;20336;-58
2022/03/22 02:08:21;;;;;;;7.67;5.83;;;;;;;;;;5048862;28;20304;-61
2022/03/22 02:10:48;;;;;;;8.67;5.20;;;;;;;;;;5060564;28;20214;-58
2022/03/22 02:13:16;;;;;;;8.83;6.00;;;;;;;;;;5058886;28;20707;-59
2022/03/22 02:15:44;;;;;;;8.87;5.37;;;;;;;;;;5058600;28;20221;-59
2022/03/22 02:18:11;;;;;;;7.97;4.90;;;;;;;;;;5058494;28;20326;-59
2022/03/22 02:20:38;;;;;;;7.53;5.47;;;;;;;;;;5057469;28;20214;-58
2022/03/22 02:23:06;;;;;;;5.77;4.63;;;;;;;;;;5059501;28;20202;-59
2022/03/22 02:25:35;;;;;;;8.57;5.27;;;;;;;;;;5060173;28;20301;-59
2022/03/22 02:28:03;;;;;;;8.03;4.60;;;;;;;;;;5058928;28;20224;-59
2022/03/22 02:30:30;;;;;;;6.53;5.00;;;;;;;;;;5059903;28;20315;-59
2022/03/22 02:32:59;;;;;;;6.23;4.67;;;;;;;;;;5049187;28;20222;-59
2022/03/22 02:35:28;;;;;;;6.63;4.83;;;;;;;;;;5049075;28;20219;-59
2022/03/22 02:37:55;;;;;;;7.10;4.80;;;;;;;;;;5057993;28;20205;-59
2022/03/22 02:40:22;;;;;;;8.13;5.00;;;;;;;;;;5058842;28;20554;-59
2022/03/22 02:42:54;;;;;;;9.77;5.20;;;;;;;;;;5052875;28;20207;-61
2022/03/22 02:45:21;;;;;;;7.70;4.70;;;;;;;;;;5050117;28;20219;-60
2022/03/22 02:47:49;;;;;;;7.27;4.63;;;;;;;;;;5053185;28;20207;-61
2022/03/22 02:50:16;;;;;;;8.87;4.70;;;;;;;;;;5052403;28;20210;-58
2022/03/22 02:52:45;;;;;;;9.73;5.40;;;;;;;;;;5045611;28;20223;-58
2022/03/22 02:55:12;;;;;;;8.07;5.50;;;;;;;;;;5053122;28;20212;-58
2022/03/22 02:57:40;;;;;;;8.13;5.57;;;;;;;;;;5051198;28;20229;-58
2022/03/22 03:00:09;;;;;;;6.63;4.87;;;;;;;;;;5054584;28;20581;-59
2022/03/22 03:02:42;;;;;;;14.73;6.03;;;;;;;;;;5054901;28;20202;-60
2022/03/22 03:05:09;;;;;;;7.13;4.87;;;;;;;;;;5046732;28;20253;-59
2022/03/22 03:07:36;;;;;;;7.57;4.97;;;;;;;;;;5050533;28;20735;-59
2022/03/22 03:10:03;;;;;;;5.57;4.60;;;;;;;;;;5054259;28;20254;-60
2022/03/22 03:12:30;;;;;;;13.23;5.70;;;;;;;;;;5050010;28;20595;-59
2022/03/22 03:14:57;;;;;;;7.47;5.27;;;;;;;;;;5056720;28;20211;-60
2022/03/22 03:17:26;;;;;;;7.63;4.83;;;;;;;;;;5044293;28;20855;-59
2022/03/22 03:19:53;;;;;;;10.73;4.90;;;;;;;;;;5049243;28;20780;-59
2022/03/22 03:22:20;;;;;;;8.93;5.60;;;;;;;;;;5049204;28;20212;-59
2022/03/22 03:24:47;;;;;;;8.07;5.13;;;;;;;;;;5056680;28;20224;-59
2022/03/22 03:27:15;;;;;;;8.13;5.13;;;;;;;;;;5049250;28;20227;-59
2022/03/22 03:29:42;;;;;;;7.57;5.13;;;;;;;;;;5049047;28;20254;-59
2022/03/22 03:32:09;;;;;;;7.57;4.43;;;;;;;;;;5042908;28;20206;-60
2022/03/22 03:34:38;;;;;;;8.90;5.20;;;;;;;;;;5048869;28;20211;-59
2022/03/22 03:37:06;;;;;;;6.50;4.40;;;;;;;;;;5058886;28;20219;-59
2022/03/22 03:39:33;;;;;;;5.47;4.40;;;;;;;;;;5052615;28;20206;-59
2022/03/22 03:42:01;;;;;;;6.73;5.30;;;;;;;;;;5055655;28;20589;-60
2022/03/22 03:47:14;;;;;;;8.00;4.80;;;;;;;;;;5048429;28;20972;-60
2022/03/22 03:49:43;;;;;;;10.90;4.70;;;;;;;;;;5042596;28;20207;-59
2022/03/22 03:52:11;;;;;;;13.40;5.87;;;;;;;;;;5049512;28;20204;-60
2022/03/22 03:54:38;;;;;;;9.13;4.90;;;;;;;;;;5062693;28;20224;-59
2022/03/22 03:57:06;;;;;;;8.40;4.83;;;;;;;;;;5059218;28;20195;-59
2022/03/22 03:59:34;;;;;;;10.90;5.57;;;;;;;;;;5063048;28;20211;-60
2022/03/22 04:02:01;;;;;;;7.30;4.93;;;;;;;;;;5053557;28;20208;-60
2022/03/22 04:04:28;;;;;;;7.33;5.20;;;;;;;;;;5048013;28;20203;-59
2022/03/22 04:06:56;;;;;;;7.70;4.97;;;;;;;;;;5048267;28;20205;-59
2022/03/22 04:09:24;;;;;;;14.47;5.07;;;;;;;;;;5048648;28;20239;-59
2022/03/22 04:11:51;;;;;;;7.40;4.73;;;;;;;;;;5055022;28;20262;-59
2022/03/22 04:14:18;;;;;;;10.10;4.93;;;;;;;;;;5057062;28;20226;-59
2022/03/22 04:16:46;;;;;;;8.00;4.67;;;;;;;;;;5055281;28;21639;-59
2022/03/22 04:19:13;;;;;;;9.03;4.93;;;;;;;;;;5052090;28;20200;-59
2022/03/22 04:21:40;;;;;;;8.47;4.67;;;;;;;;;;5055923;28;20195;-59
2022/03/22 04:24:09;;;;;;;7.83;5.20;;;;;;;;;;5048878;28;20204;-59
2022/03/22 04:26:37;;;;;;;8.43;5.43;;;;;;;;;;5057281;28;20207;-60
2022/03/22 04:34:33;;;;;;;12.97;6.10;;;;;;;;;;5066443;28;20664;-59
2022/03/22 04:37:00;;;;;;;8.50;5.30;;;;;;;;;;5053219;28;20210;-59
2022/03/22 04:39:30;;;;;;;10.30;5.87;;;;;;;;;;5066270;28;20224;-59
2022/03/22 04:41:57;;;;;;;7.27;4.83;;;;;;;;;;5057640;28;20220;-59
2022/03/22 04:44:26;;;;;;;8.10;5.47;;;;;;;;;;5068261;28;20195;-60
2022/03/22 04:46:53;;;;;;;7.40;5.10;;;;;;;;;;5058719;28;20883;-59
2022/03/22 04:49:20;;;;;;;8.70;4.87;;;;;;;;;;5048627;28;20211;-59
2022/03/22 04:57:19;;;;;;;11.17;5.50;;;;;;;;;;5053928;28;20203;-59
2022/03/22 04:59:47;;;;;;;11.50;5.10;;;;;;;;;;5062688;28;20612;-59
2022/03/22 05:02:15;;;;;;;9.83;5.17;;;;;;;;;;5059437;28;20260;-60
2022/03/22 05:04:42;;;;;;;14.77;5.67;;;;;;;;;;5069407;28;20294;-59
2022/03/22 05:07:09;;;;;;;10.43;5.23;;;;;;;;;;5060867;28;20207;-60
2022/03/22 05:09:37;;;;;;;12.03;5.87;;;;;;;;;;5013894;28;20220;-59
2022/03/22 05:12:05;;;;;;;7.13;4.87;;;;;;;;;;5025895;28;20211;-59
2022/03/22 05:14:32;;;;;;;7.20;4.27;;;;;;;;;;5029299;28;20571;-60
2022/03/22 05:16:59;;;;;;;8.83;5.57;;;;;;;;;;5023185;28;20208;-59
2022/03/22 05:19:26;;;;;;;11.30;5.03;;;;;;;;;;5020265;28;20250;-58
2022/03/22 05:21:53;;;;;;;5.93;4.97;;;;;;;;;;5032311;28;20208;-59
2022/03/22 05:24:20;;;;;;;6.50;4.90;;;;;;;;;;5019465;28;20208;-59
2022/03/22 05:26:50;;;;;;;9.17;5.23;;;;;;;;;;5032031;28;20209;-59
2022/03/22 05:29:17;;;;;;;11.13;5.03;;;;;;;;;;5016612;28;20250;-59
2022/03/22 05:31:45;;;;;;;10.97;5.70;;;;;;;;;;5021053;28;20254;-59
2022/03/22 05:34:13;;;;;;;7.67;4.07;;;;;;;;;;5029472;28;20235;-59
2022/03/22 05:36:40;;;;;;;7.70;5.40;;;;;;;;;;5020293;28;20807;-59
2022/03/22 05:39:07;;;;;;;10.83;4.60;;;;;;;;;;5012171;28;20663;-59
2022/03/22 05:41:34;;;;;;;6.40;4.63;;;;;;;;;;5016533;28;20212;-59
2022/03/22 05:44:03;;;;;;;8.13;4.60;;;;;;;;;;5030813;28;20204;-59
2022/03/22 05:46:31;;;;;;;6.97;5.23;;;;;;;;;;5020261;28;20205;-59
2022/03/22 05:48:58;;;;;;;7.37;5.30;;;;;;;;;;5021046;28;20685;-60
2022/03/22 05:51:26;;;;;;;11.13;4.13;;;;;;;;;;5025891;28;20298;-61
2022/03/22 05:53:53;;;;;;;10.50;5.27;;;;;;;;;;5031187;28;20270;-60
2022/03/22 05:56:20;;;;;;;7.17;4.93;;;;;;;;;;5024939;28;20212;-61
2022/03/22 05:58:47;;;;;;;7.60;4.90;;;;;;;;;;5014400;28;20678;-61
2022/03/22 06:01:16;;;;;;;9.70;4.33;;;;;;;;;;5029759;28;20216;-59
2022/03/22 06:03:43;;;;;;;8.80;5.23;;;;;;;;;;5016169;28;20204;-59
2022/03/22 06:06:10;;;;;;;8.73;5.00;;;;;;;;;;5017574;28;20208;-61
2022/03/22 06:08:37;;;;;;;8.40;5.00;;;;;;;;;;5039524;28;20282;-59
2022/03/22 06:11:04;;;;;;;7.97;4.73;;;;;;;;;;5049749;28;20200;-59
2022/03/22 06:13:31;;;;;;;9.03;5.30;;;;;;;;;;5068541;28;20219;-60
2022/03/22 06:15:58;;;;;;;8.47;5.13;;;;;;;;;;5055933;28;20199;-59
2022/03/22 06:18:27;;;;;;;5.37;4.43;;;;;;;;;;5050525;28;20215;-61
2022/03/22 06:20:54;;;;;;;5.97;4.43;;;;;;;;;;5066474;28;20295;-60
2022/03/22 06:23:22;;;;;;;3.60;3.17;;;;;;;;;;5063419;28;20201;-59
2022/03/22 06:25:51;;;;;;;6.17;4.97;;;;;;;;;;5061998;28;20219;-59
2022/03/22 06:28:18;;;;;;;9.13;5.33;;;;;;;;;;5055346;28;20204;-59
2022/03/22 06:30:46;;;;;;;11.07;5.47;;;;;;;;;;5067728;28;20240;-61
2022/03/22 06:33:13;;;;;;;5.03;4.27;;;;;;;;;;5063232;28;20222;-58
2022/03/22 06:35:42;;;;;;;3.50;3.13;;;;;;;;;;5067583;28;20266;-60
2022/03/22 06:38:10;;;;;;;7.13;4.43;;;;;;;;;;5054229;28;20295;-60
2022/03/22 06:40:38;;;;;;;8.77;5.03;;;;;;;;;;5064104;28;20206;-60
2022/03/22 06:43:06;;;;;;;6.80;4.60;;;;;;;;;;5054877;28;20214;-60
2022/03/22 06:45:33;;;;;;;5.40;3.27;;;;;;;;;;5052199;28;20222;-61
2022/03/22 06:48:01;;;;;;;6.10;3.97;;;;;;;;;;5053103;28;20206;-60
2022/03/22 06:50:28;;;;;;;6.10;4.17;;;;;;;;;;5064274;28;20627;-60
2022/03/22 06:52:57;;;;;;;6.17;2.97;;;;;;;;;;5065262;28;20551;-60
2022/03/22 06:55:24;;;;;;;9.30;4.93;;;;;;;;;;5051243;28;20250;-60
2022/03/22 06:57:52;;;;;;;13.73;4.87;;;;;;;;;;5061294;28;20295;-60
2022/03/22 07:00:20;;;;;;;8.00;4.43;;;;;;;;;;5049931;28;20211;-60
2022/03/22 07:02:47;;;;;;;6.50;4.30;;;;;;;;;;5062584;28;20207;-60
2022/03/22 07:05:15;;;;;;;4.90;3.97;;;;;;;;;;5050932;28;20206;-60
2022/03/22 07:07:42;;;;;;;8.23;4.83;;;;;;;;;;5050022;28;20235;-60
2022/03/22 07:10:11;;;;;;;5.97;4.20;;;;;;;;;;5050205;28;20208;-60
2022/03/22 07:12:51;;;;;;;6.93;4.87;;;;;;;;;;5053956;28;20711;-60
2022/03/22 07:15:18;;;;;;;6.87;4.77;;;;;;;;;;5068556;28;20227;-60
2022/03/22 07:17:45;;;;;;;6.43;4.87;;;;;;;;;;5064065;28;20241;-60
2022/03/22 07:20:13;;;;;;;6.37;4.53;;;;;;;;;;5056314;28;20213;-60
2022/03/22 07:22:42;;;;;;;9.13;5.33;;;;;;;;;;5069616;28;20756;-60
2022/03/22 07:25:10;;;;;;;7.97;3.40;;;;;;;;;;5069546;28;20246;-60
2022/03/22 07:27:38;;;;;;;8.00;5.23;;;;;;;;;;5069373;28;20245;-60
2022/03/22 07:30:05;;;;;;;8.03;4.90;;;;;;;;;;5052218;28;20226;-60
2022/03/22 07:32:32;;;;;;;6.57;5.00;;;;;;;;;;5068585;28;20210;-60
2022/03/22 07:35:00;;;;;;;7.90;4.87;;;;;;;;;;5069385;28;20734;-60
2022/03/22 07:37:28;;;;;;;6.53;4.70;;;;;;;;;;5069516;28;20294;-60
2022/03/22 07:39:56;;;;;;;7.23;4.93;;;;;;;;;;5069222;28;20211;-61
2022/03/22 07:42:27;;;;;;;3.67;2.83;;;;;;;;;;5057822;28;20318;-60
2022/03/22 07:44:54;;;;;;;8.40;4.93;;;;;;;;;;5049387;28;20204;-60
2022/03/22 07:47:21;;;;;;;6.73;5.23;;;;;;;;;;5049251;28;20218;-60
2022/03/22 07:55:18;;;;;;;3.80;3.07;;;;;;;;;;5054755;28;20300;-59
2022/03/22 07:57:46;;;;;;;8.70;4.70;;;;;;;;;;5061317;28;20254;-59
2022/03/22 08:00:14;;;;;;;6.03;3.93;;;;;;;;;;5065351;28;20225;-60
2022/03/22 08:02:50;;;;;;;8.33;4.10;;;;;;;;;;5056401;28;20235;-61
2022/03/22 08:05:18;;;;;;;3.53;2.30;;;;;;;;;;5056170;28;20678;-61
2022/03/22 08:07:45;;;;;;;5.00;4.23;;;;;;;;;;5068989;28;20262;-61
2022/03/22 08:10:13;;;;;;;7.30;4.87;;;;;;;;;;5068639;28;20230;-61
2022/03/22 08:12:40;;;;;;;7.13;5.03;;;;;;;;;;5066067;28;20233;-60
2022/03/22 08:15:09;;;;;;;7.67;4.70;;;;;;;;;;5068498;28;20639;-61
2022/03/22 08:17:37;;;;;;;5.10;3.73;;;;;;;;;;5068267;28;20207;-61
2022/03/22 08:20:05;;;;;;;4.33;3.93;;;;;;;;;;5056126;28;20233;-60
2022/03/22 08:22:33;;;;;;;6.57;3.93;;;;;;;;;;5047668;28;20210;-60
2022/03/22 08:25:00;;;;;;;5.60;3.90;;;;;;;;;;5049196;28;20252;-61
2022/03/22 08:27:27;;;;;;;5.30;4.10;;;;;;;;;;5051686;28;20215;-60
2022/03/22 08:29:54;;;;;;;8.67;3.43;;;;;;;;;;5050876;28;20231;-61
2022/03/22 08:32:22;;;;;;;6.43;3.30;;;;;;;;;;5051844;28;20208;-60
2022/03/22 08:34:49;;;;;;;6.03;4.83;;;;;;;;;;5051969;28;20301;-61
2022/03/22 08:37:16;;;;;;;6.97;4.80;;;;;;;;;;5051625;28;20199;-61
2022/03/22 08:39:43;;;;;;;6.97;4.40;;;;;;;;;;5052101;28;20219;-61
2022/03/22 08:42:10;;;;;;;1.97;1.87;;;;;;;;;;5060141;28;20214;-61
2022/03/22 08:44:40;;;;;;;7.13;4.90;;;;;;;;;;5053726;28;20214;-61
2022/03/22 08:47:08;;;;;;;8.53;4.83;;;;;;;;;;5057454;28;20199;-61
2022/03/22 08:49:36;;;;;;;5.03;3.10;;;;;;;;;;5051417;28;20204;-61
2022/03/22 08:52:03;;;;;;;6.47;4.37;;;;;;;;;;5058586;28;20207;-61
2022/03/22 08:54:30;;;;;;;8.47;4.60;;;;;;;;;;5063343;28;20228;-61
2022/03/22 08:56:57;;;;;;;5.83;4.90;;;;;;;;;;5055352;28;20221;-61
2022/03/22 08:59:24;;;;;;;5.77;3.83;;;;;;;;;;5057108;28;20223;-61
2022/03/22 09:01:51;;;;;;;3.47;2.57;;;;;;;;;;5055793;28;20207;-61
2022/03/22 09:07:04;;;;;;;8.37;4.83;;;;;;;;;;5058977;28;20218;-64
2022/03/22 09:09:31;;;;;;;7.07;5.33;;;;;;;;;;5052360;28;20239;-61
2022/03/22 09:11:58;;;;;;;3.90;3.60;;;;;;;;;;5060500;28;20233;-61
2022/03/22 09:14:27;;;;;;;7.67;3.50;;;;;;;;;;5052272;28;20240;-60
2022/03/22 09:16:54;;;;;;;4.57;3.40;;;;;;;;;;5068389;28;20235;-59
2022/03/22 09:19:21;;;;;;;9.57;5.47;;;;;;;;;;5071672;28;20677;-60
2022/03/22 09:21:49;;;;;;;8.57;5.60;;;;;;;;;;5070456;28;20348;-60
2022/03/22 09:24:17;;;;;;;6.57;4.87;;;;;;;;;;5055224;28;20200;-60
2022/03/22 09:26:44;;;;;;;5.13;4.27;;;;;;;;;;5060222;28;20696;-61
2022/03/22 09:29:11;;;;;;;7.83;5.43;;;;;;;;;;5055523;28;20239;-61
2022/03/22 09:31:40;;;;;;;6.10;4.50;;;;;;;;;;5051160;28;20207;-61
2022/03/22 09:34:12;;;;;;;8.70;3.37;;;;;;;;;;5063740;28;20284;-60
2022/03/22 09:36:39;;;;;;;4.00;2.60;;;;;;;;;;5068622;28;20595;-60
2022/03/22 09:39:06;;;;;;;5.60;3.77;;;;;;;;;;5061038;28;20297;-61
2022/03/22 09:41:35;;;;;;;5.30;4.50;;;;;;;;;;5054934;28;20199;-60
2022/03/22 09:44:03;;;;;;;4.47;3.87;;;;;;;;;;5069810;28;20203;-61
2022/03/22 09:46:32;;;;;;;7.00;4.73;;;;;;;;;;5070857;28;20221;-61
2022/03/22 09:49:00;;;;;;;7.27;4.73;;;;;;;;;;5059414;28;20609;-61
2022/03/22 09:51:49;;;;;;;3.50;2.30;;;;;;;;;;5062963;28;20210;-61
2022/03/22 09:54:17;;;;;;;5.50;4.27;;;;;;;;;;5068699;28;20279;-61
2022/03/22 09:56:47;;;;;;;5.13;3.97;;;;;;;;;;5068751;28;20670;-61
2022/03/22 09:59:15;;;;;;;3.00;2.77;;;;;;;;;;5050658;28;20731;-61
2022/03/22 10:01:43;;;;;;;8.50;5.13;;;;;;;;;;5052295;28;20673;-61
2022/03/22 10:04:12;;;;;;;6.27;5.00;;;;;;;;;;5056799;28;20198;-61
2022/03/22 10:06:40;;;;;;;4.10;3.67;;;;;;;;;;5056143;28;20818;-61
2022/03/22 10:09:07;;;;;;;4.37;3.67;;;;;;;;;;5049074;28;20231;-61
2022/03/22 10:11:44;;;;;;;6.40;4.07;;;;;;;;;;5055750;28;20219;-61
2022/03/22 10:14:14;;;;;;;4.30;3.13;;;;;;;;;;5066674;28;20226;-61
2022/03/22 10:16:50;;;;;;;7.20;4.40;;;;;;;;;;5050261;28;20261;-60
2022/03/22 10:19:21;;;;;;;5.97;4.83;;;;;;;;;;5050358;28;20588;-61
2022/03/22 10:21:48;;;;;;;7.77;4.77;;;;;;;;;;5050284;28;20681;-61
2022/03/22 10:24:16;;;;;;;7.07;5.17;;;;;;;;;;5051130;28;20226;-60
2022/03/22 10:26:44;;;;;;;7.67;5.27;;;;;;;;;;5069876;28;20202;-61
2022/03/22 10:29:14;;;;;;;5.33;4.83;;;;;;;;;;5070399;28;20321;-60
2022/03/22 10:31:41;;;;;;;6.00;4.67;;;;;;;;;;5070445;28;20219;-61
2022/03/22 10:34:09;;;;;;;5.67;5.07;;;;;;;;;;5069519;28;20760;-59
2022/03/22 10:36:36;;;;;;;6.90;4.90;;;;;;;;;;5052195;28;20207;-60
2022/03/22 10:39:05;;;;;;;6.67;5.13;;;;;;;;;;5052679;28;20648;-61
2022/03/22 10:41:32;;;;;;;6.87;4.90;;;;;;;;;;5069844;28;20601;-61
2022/03/22 10:44:04;;;;;;;5.17;4.23;;;;;;;;;;5070051;28;20207;-61
2022/03/22 10:46:32;;;;;;;6.50;4.73;;;;;;;;;;5053135;28;20230;-60
2022/03/22 10:49:07;;;;;;;7.10;4.80;;;;;;;;;;5046798;28;20208;-61
2022/03/22 10:51:34;;;;;;;5.50;4.57;;;;;;;;;;5051360;28;20650;-61
2022/03/22 10:54:01;;;;;;;6.57;4.83;;;;;;;;;;5049871;28;20212;-61
2022/03/22 10:56:30;;;;;;;6.27;4.47;;;;;;;;;;5066190;28;20242;-61
2022/03/22 10:58:59;;;;;;;9.23;5.30;;;;;;;;;;5069266;28;20217;-61
2022/03/22 11:01:26;;;;;;;10.90;5.33;;;;;;;;;;5057677;28;20223;-61
2022/03/22 11:03:58;;;;;;;4.80;4.38;;;;;;;;;;5049658;28;20532;-61
2022/03/22 11:06:30;;;;;;;5.63;4.17;;;;;;;;;;5059723;28;20203;-60
2022/03/22 11:08:57;;;;;;;5.25;4.72;;;;;;;;;;5068755;28;20230;-60
2022/03/22 11:11:25;;;;;;;5.35;4.70;;;;;;;;;;5069111;28;20207;-61
2022/03/22 11:13:52;;;;;;;6.53;5.07;;;;;;;;;;5068734;28;20206;-60
2022/03/22 11:16:20;;;;;;;7.05;5.00;;;;;;;;;;5061447;28;20310;-61
2022/03/22 11:18:48;;;;;;;5.00;4.50;;;;;;;;;;5049251;28;20616;-60
2022/03/22 11:21:19;;;;;;;6.00;5.25;;;;;;;;;;5049152;28;20211;-60
2022/03/22 11:23:47;;;;;;;5.93;5.38;;;;;;;;;;5049240;28;20697;-60
2022/03/22 11:26:16;;;;;;;5.40;4.65;;;;;;;;;;5052379;28;20217;-60
2022/03/22 11:28:43;;;;;;;6.65;4.72;;;;;;;;;;5067616;28;20223;-61
2022/03/22 11:31:10;;;;;;;4.43;4.03;;;;;;;;;;5067053;28;20680;-60
2022/03/22 11:36:26;;;;;;;6.43;4.50;;;;;;;;;;5048832;28;20249;-61
2022/03/22 11:38:54;;;;;;;5.95;5.25;;;;;;;;;;5048512;28;20215;-61
2022/03/22 11:44:08;;;;;;;5.70;4.30;;;;;;;;;;5048575;28;20278;-61
2022/03/22 11:46:36;;;;;;;4.95;4.45;;;;;;;;;;5049062;28;20239;-61
2022/03/22 11:49:12;;;;;;;5.85;5.25;;;;;;;;;;5066700;28;20215;-60
2022/03/22 11:51:48;;;;;;;7.05;4.78;;;;;;;;;;5062133;28;20231;-61
2022/03/22 11:54:15;;;;;;;5.68;4.50;;;;;;;;;;5060099;28;20328;-60
2022/03/22 11:56:46;;;;;;;6.88;5.20;;;;;;;;;;5067990;28;20854;-61
2022/03/22 11:59:16;;;;;;;6.05;4.97;;;;;;;;;;5065150;28;20211;-60
2022/03/22 12:01:43;;;;;;;6.25;5.65;;;;;;;;;;5062455;28;20630;-60
2022/03/22 12:04:16;;;;;;;6.10;5.50;;;;;;;;;;5066259;28;20576;-60
2022/03/22 12:06:43;;;;;;;4.97;4.47;;;;;;;;;;5054906;28;20307;-61
2022/03/22 12:09:12;;;;;;;7.35;5.03;;;;;;;;;;5048788;28;20756;-61
2022/03/22 12:11:49;;;;;;;6.63;4.93;;;;;;;;;;5042742;28;20685;-61
2022/03/22 12:14:26;;;;;;;4.55;3.90;;;;;;;;;;5044396;28;20215;-60
2022/03/22 12:16:53;;;;;;;6.28;5.28;;;;;;;;;;5044435;28;20362;-61
2022/03/22 12:19:25;;;;;;;5.57;5.05;;;;;;;;;;5043771;28;20218;-61
2022/03/22 12:21:53;;;;;;;6.72;4.97;;;;;;;;;;5045148;28;20226;-61
2022/03/22 12:24:22;;;;;;;6.85;5.40;;;;;;;;;;5044226;28;20239;-60
2022/03/22 12:26:49;;;;;;;6.65;4.90;;;;;;;;;;5056292;28;20214;-61
2022/03/22 12:29:16;;;;;;;6.22;5.00;;;;;;;;;;5050976;28;20239;-60
2022/03/22 12:31:48;;;;;;;5.05;4.65;;;;;;;;;;5043712;28;20219;-60
2022/03/22 12:34:15;;;;;;;5.22;4.78;;;;;;;;;;5058900;28;20207;-60
2022/03/22 12:36:42;;;;;;;6.72;5.28;;;;;;;;;;5055104;28;20308;-60
2022/03/22 12:39:09;;;;;;;5.75;4.60;;;;;;;;;;5046968;28;20219;-60
2022/03/22 12:41:38;;;;;;;5.25;4.75;;;;;;;;;;5046020;28;20207;-60
2022/03/22 12:44:05;;;;;;;4.57;4.25;;;;;;;;;;5059695;28;20207;-60
2022/03/22 12:46:32;;;;;;;6.40;4.32;;;;;;;;;;5049501;28;20211;-59
2022/03/22 12:49:00;;;;;;;2.95;2.78;;;;;;;;;;5058152;28;20211;-60
2022/03/22 12:51:27;;;;;;;6.28;4.70;;;;;;;;;;5063078;28;20214;-60
2022/03/22 12:53:54;;;;;;;3.95;3.63;;;;;;;;;;5062008;28;20202;-60
2022/03/22 12:56:22;;;;;;;5.60;5.00;;;;;;;;;;5060860;28;20227;-60
2022/03/22 12:58:51;;;;;;;5.53;5.03;;;;;;;;;;5061378;28;20222;-60
2022/03/22 13:01:19;;;;;;;6.93;5.10;;;;;;;;;;5044660;28;20680;-60
2022/03/22 13:03:46;;;;;;;5.78;4.93;;;;;;;;;;5044795;28;20235;-60
2022/03/22 13:06:14;;;;;;;5.82;5.00;;;;;;;;;;5044013;28;20204;-60
2022/03/22 13:11:29;;;;;;;3.92;3.20;;;;;;;;;;5053251;28;20308;-59
2022/03/22 13:16:43;;;;;;;7.05;4.07;;;;;;;;;;5061656;28;20408;-60
2022/03/22 13:19:10;;;;;;;5.95;4.80;;;;;;;;;;5057509;28;20199;-61
2022/03/22 13:21:38;;;;;;;3.97;3.58;;;;;;;;;;5047199;28;20219;-61
2022/03/22 13:24:07;;;;;;;6.15;4.65;;;;;;;;;;5054551;28;20203;-60
2022/03/22 13:26:35;;;;;;;7.68;4.40;;;;;;;;;;5053801;28;20199;-60
2022/03/22 13:29:16;;;;;;;2.63;2.47;;;;;;;;;;5060824;28;20871;-60
2022/03/22 13:31:53;;;;;;;4.78;4.38;;;;;;;;;;5058869;28;20575;-60
2022/03/22 13:34:21;;;;;;;4.32;3.92;;;;;;;;;;5060912;28;20203;-60
2022/03/22 13:36:48;;;;;;;4.95;3.55;;;;;;;;;;5064073;28;20325;-60
2022/03/22 13:39:23;;;;;;;9.05;4.45;;;;;;;;;;5065584;28;20268;-60
2022/03/22 13:41:50;;;;;;;3.80;3.50;;;;;;;;;;5060373;28;20302;-60
2022/03/22 13:44:27;;;;;;;4.38;3.97;;;;;;;;;;5047931;28;20250;-60
2022/03/22 13:46:59;;;;;;;4.03;3.72;;;;;;;;;;5058256;28;20226;-60
2022/03/22 13:49:33;;;;;;;5.20;4.30;;;;;;;;;;5066678;28;20221;-60
2022/03/22 13:52:01;;;;;;;4.50;4.10;;;;;;;;;;5060667;28;21057;-59
2022/03/22 13:54:28;;;;;;;6.07;4.10;;;;;;;;;;5046841;28;20218;-60
2022/03/22 13:57:05;;;;;;;4.38;3.97;;;;;;;;;;5064007;28;20234;-60
2022/03/22 13:59:40;;;;;;;4.40;4.00;;;;;;;;;;5066043;28;20669;-60
2022/03/22 14:02:07;;;;;;;4.68;4.22;;;;;;;;;;5047378;28;20198;-59
2022/03/22 14:04:35;;;;;;;3.42;3.13;;;;;;;;;;5061214;28;20211;-60
2022/03/22 14:07:02;;;;;;;5.00;4.50;;;;;;;;;;5052533;28;20200;-60
2022/03/22 14:09:31;;;;;;;6.20;4.70;;;;;;;;;;5045587;28;20250;-60
2022/03/22 14:11:58;;;;;;;4.13;3.83;;;;;;;;;;5045816;28;20231;-60
2022/03/22 14:14:25;;;;;;;4.47;4.18;;;;;;;;;;5057369;28;20296;-60
2022/03/22 14:16:54;;;;;;;5.45;4.47;;;;;;;;;;5045737;28;20235;-60
2022/03/22 14:19:21;;;;;;;4.30;3.90;;;;;;;;;;5044305;28;20212;-60
2022/03/22 14:21:48;;;;;;;4.93;4.43;;;;;;;;;;5044561;28;20234;-60
2022/03/22 14:24:16;;;;;;;5.68;4.28;;;;;;;;;;5045560;28;20269;-60
2022/03/22 14:26:43;;;;;;;4.80;4.35;;;;;;;;;;5053276;28;20232;-59
2022/03/22 14:29:10;;;;;;;4.65;4.22;;;;;;;;;;5046078;28;20240;-61
2022/03/22 14:31:39;;;;;;;4.43;4.03;;;;;;;;;;5060127;28;20211;-60
2022/03/22 14:34:07;;;;;;;4.88;4.15;;;;;;;;;;5056142;28;20299;-60
2022/03/22 14:36:33;;;;;;;3.83;3.40;;;;;;;;;;5045249;28;20227;-60
2022/03/22 14:39:00;;;;;;;4.68;4.18;;;;;;;;;;5056127;28;20293;-60
2022/03/22 14:41:27;;;;;;;4.07;3.67;;;;;;;;;;5064239;28;20218;-61
2022/03/22 14:43:55;;;;;;;4.93;3.45;;;;;;;;;;5064562;28;20214;-60
2022/03/22 14:46:22;;;;;;;5.70;3.90;;;;;;;;;;5063337;28;20199;-60
2022/03/22 14:48:50;;;;;;;4.50;4.15;;;;;;;;;;5052393;28;20214;-60
2022/03/22 14:54:02;;;;;;;4.20;3.78;;;;;;;;;;5048623;28;20311;-60
2022/03/22 14:54:07;;;;;;;5.07;4.45;;;;;;;;;;5044678;28;20581;-59
2022/03/22 14:59:20;;;;;;;4.22;3.83;;;;;;;;;;5049282;28;20288;-60
2022/03/22 15:01:47;;;;;;;6.60;3.92;;;;;;;;;;5056666;28;20206;-60
2022/03/22 15:04:15;;;;;;;4.88;4.43;;;;;;;;;;5056686;28;20207;-60
2022/03/22 15:06:43;;;;;;;4.93;3.75;;;;;;;;;;5050592;28;20644;-60
2022/03/22 15:09:12;;;;;;;4.00;3.70;;;;;;;;;;5062359;28;20234;-59
2022/03/22 15:11:39;;;;;;;5.25;3.75;;;;;;;;;;5059785;28;20667;-59
2022/03/22 15:14:09;;;;;;;4.28;3.92;;;;;;;;;;5044997;28;20208;-59
2022/03/22 15:16:37;;;;;;;5.72;4.38;;;;;;;;;;5044218;28;20228;-59
2022/03/22 15:19:04;;;;;;;5.20;4.03;;;;;;;;;;5045021;28;20646;-60
2022/03/22 15:21:32;;;;;;;4.00;3.70;;;;;;;;;;5063809;28;20744;-59
2022/03/22 15:24:00;;;;;;;3.42;3.13;;;;;;;;;;5049057;28;20678;-59
2022/03/22 15:26:30;;;;;;;5.40;3.65;;;;;;;;;;5059205;28;20560;-59